Time;durP1;ratioP1;P1;durP2;ratioP2;P2;SDS_P1;SDS_P2;PMS_P1;PMS_P2;Temp;Humidity;BMP_temperature;BMP_pressure;BME280_temperature;BME280_humidity;BME280_pressure;Samples;Min_cycle;Max_cycle;Signal;HPM_P1;HPM_P2
2022/04/30 00:02:15;;;;;;;7.63;4.00;;;;;;;;;;6247705;23;20164;-63
2022/04/30 00:04:45;;;;;;;5.15;4.00;;;;;;;;;;6247981;23;20148;-63
2022/04/30 00:07:17;;;;;;;7.60;4.03;;;;;;;;;;6247579;23;20223;-63
2022/04/30 00:09:44;;;;;;;7.38;3.88;;;;;;;;;;6247471;23;20619;-63
2022/04/30 00:12:10;;;;;;;5.75;3.58;;;;;;;;;;6247637;23;20564;-62
2022/04/30 00:14:37;;;;;;;6.90;3.55;;;;;;;;;;6247351;23;20168;-63
2022/04/30 00:17:03;;;;;;;4.78;3.78;;;;;;;;;;6247815;23;20144;-63
2022/04/30 00:19:29;;;;;;;4.88;4.10;;;;;;;;;;6247362;23;20190;-63
2022/04/30 00:21:55;;;;;;;7.90;4.68;;;;;;;;;;6247531;23;20198;-63
2022/04/30 00:24:22;;;;;;;4.88;3.97;;;;;;;;;;6247324;23;20434;-63
2022/04/30 00:26:48;;;;;;;4.80;3.75;;;;;;;;;;6247791;23;20163;-62
2022/04/30 00:29:14;;;;;;;7.65;3.75;;;;;;;;;;6247416;23;20433;-64
2022/04/30 00:31:40;;;;;;;7.50;3.75;;;;;;;;;;6247577;23;20144;-63
2022/04/30 00:34:06;;;;;;;5.95;3.63;;;;;;;;;;6247795;23;20180;-63
2022/04/30 00:36:33;;;;;;;9.40;4.05;;;;;;;;;;6247332;23;20215;-62
2022/04/30 00:38:58;;;;;;;5.97;4.07;;;;;;;;;;6247182;23;20215;-63
2022/04/30 00:41:24;;;;;;;6.20;3.80;;;;;;;;;;6247325;23;20179;-63
2022/04/30 00:43:54;;;;;;;6.95;3.83;;;;;;;;;;6246785;23;20222;-63
2022/04/30 00:46:22;;;;;;;6.47;3.65;;;;;;;;;;6247324;23;20141;-63
2022/04/30 00:48:48;;;;;;;5.82;3.72;;;;;;;;;;6247222;23;20159;-63
2022/04/30 00:51:15;;;;;;;5.22;4.32;;;;;;;;;;6247059;23;20229;-63
2022/04/30 00:53:42;;;;;;;6.40;4.38;;;;;;;;;;6248872;23;20147;-63
2022/04/30 00:56:09;;;;;;;7.28;4.72;;;;;;;;;;6247490;23;20174;-63
2022/04/30 00:58:36;;;;;;;6.05;4.05;;;;;;;;;;6247059;23;20137;-63
2022/04/30 01:01:04;;;;;;;6.43;4.38;;;;;;;;;;6246936;23;20563;-63
2022/04/30 01:03:30;;;;;;;9.02;4.60;;;;;;;;;;6247608;23;20140;-63
2022/04/30 01:05:58;;;;;;;8.18;5.05;;;;;;;;;;6247351;23;20231;-63
2022/04/30 01:08:27;;;;;;;7.25;4.70;;;;;;;;;;6247394;23;20150;-63
2022/04/30 01:10:53;;;;;;;8.20;4.63;;;;;;;;;;6247388;23;20141;-62
2022/04/30 01:13:20;;;;;;;7.47;4.07;;;;;;;;;;6247554;23;20143;-62
2022/04/30 01:15:46;;;;;;;9.15;4.70;;;;;;;;;;6247019;23;20180;-63
2022/04/30 01:18:12;;;;;;;9.25;4.68;;;;;;;;;;6246899;23;20555;-63
2022/04/30 01:20:42;;;;;;;8.52;4.05;;;;;;;;;;6246647;23;20631;-63
2022/04/30 01:23:08;;;;;;;7.97;4.18;;;;;;;;;;6247119;23;20144;-63
2022/04/30 01:25:35;;;;;;;5.72;4.10;;;;;;;;;;6246827;23;20562;-63
2022/04/30 01:28:02;;;;;;;8.02;4.10;;;;;;;;;;6246939;23;20175;-63
2022/04/30 01:30:28;;;;;;;7.35;4.30;;;;;;;;;;6246662;23;20144;-63
2022/04/30 01:38:23;;;;;;;6.38;4.22;;;;;;;;;;6246815;23;20143;-63
2022/04/30 01:40:49;;;;;;;8.48;4.30;;;;;;;;;;6247167;23;20182;-63
2022/04/30 01:43:16;;;;;;;6.47;4.35;;;;;;;;;;6246739;23;20151;-63
2022/04/30 01:45:44;;;;;;;9.05;4.40;;;;;;;;;;6246526;23;20682;-63
2022/04/30 01:48:14;;;;;;;9.68;4.60;;;;;;;;;;6246977;23;20148;-63
2022/04/30 01:50:40;;;;;;;10.25;4.60;;;;;;;;;;6246561;23;20421;-63
2022/04/30 01:53:06;;;;;;;4.93;4.38;;;;;;;;;;6246661;23;20239;-63
2022/04/30 01:55:31;;;;;;;7.80;4.80;;;;;;;;;;6246893;23;20511;-63
2022/04/30 01:57:57;;;;;;;8.48;4.45;;;;;;;;;;6246683;23;20571;-63
2022/04/30 02:00:23;;;;;;;9.20;4.68;;;;;;;;;;6246787;23;20201;-63
2022/04/30 02:02:50;;;;;;;9.88;5.47;;;;;;;;;;6246957;23;20210;-63
2022/04/30 02:05:17;;;;;;;10.00;5.45;;;;;;;;;;6246427;23;20631;-63
2022/04/30 02:07:49;;;;;;;7.95;5.47;;;;;;;;;;6246550;23;20144;-63
2022/04/30 02:10:18;;;;;;;11.15;6.70;;;;;;;;;;6246404;23;20359;-63
2022/04/30 02:12:44;;;;;;;10.80;6.78;;;;;;;;;;6246705;23;20236;-63
2022/04/30 02:15:13;;;;;;;9.23;6.40;;;;;;;;;;6246127;23;20274;-63
2022/04/30 02:17:40;;;;;;;11.30;5.88;;;;;;;;;;6246465;23;20137;-63
2022/04/30 02:20:18;;;;;;;8.98;6.15;;;;;;;;;;6246333;23;20166;-63
2022/04/30 02:22:44;;;;;;;7.00;5.30;;;;;;;;;;6246461;23;20544;-63
2022/04/30 02:25:11;;;;;;;10.02;4.90;;;;;;;;;;6246788;23;20140;-63
2022/04/30 02:27:40;;;;;;;9.23;4.38;;;;;;;;;;6246824;23;20179;-63
2022/04/30 02:30:07;;;;;;;6.95;4.43;;;;;;;;;;6246218;23;20168;-63
2022/04/30 02:32:40;;;;;;;5.97;4.10;;;;;;;;;;6247244;23;20148;-63
2022/04/30 02:35:07;;;;;;;7.13;3.95;;;;;;;;;;6246676;23;20182;-63
2022/04/30 02:37:33;;;;;;;5.57;4.13;;;;;;;;;;6246361;23;20168;-63
2022/04/30 02:39:58;;;;;;;6.65;4.07;;;;;;;;;;6246316;23;20140;-63
2022/04/30 02:42:25;;;;;;;7.22;4.47;;;;;;;;;;6246609;23;20140;-63
2022/04/30 02:44:52;;;;;;;8.93;4.82;;;;;;;;;;6246694;23;20140;-63
2022/04/30 02:47:18;;;;;;;8.55;4.70;;;;;;;;;;6253386;22;20187;-63
2022/04/30 02:49:44;;;;;;;10.13;4.60;;;;;;;;;;6259900;22;21095;-63
2022/04/30 02:54:39;;;;;;;9.55;5.32;;;;;;;;;;6279501;22;20191;31
2022/04/30 02:57:05;;;;;;;10.35;5.72;;;;;;;;;;6220986;22;998023;-63
2022/04/30 03:02:15;;;;;;;9.57;6.35;;;;;;;;;;6255328;22;20230;-63
2022/04/30 03:04:41;;;;;;;9.30;5.85;;;;;;;;;;6258990;22;20187;-62
2022/04/30 03:07:11;;;;;;;9.23;5.82;;;;;;;;;;6258736;22;20198;-63
2022/04/30 03:09:37;;;;;;;10.45;6.30;;;;;;;;;;6267839;22;20286;-62
2022/04/30 03:12:03;;;;;;;9.93;5.35;;;;;;;;;;6251156;22;20187;-62
2022/04/30 03:14:29;;;;;;;10.57;5.82;;;;;;;;;;6257973;22;20198;-63
2022/04/30 03:22:13;;;;;;;8.20;5.63;;;;;;;;;;6257899;22;20329;-63
2022/04/30 03:24:39;;;;;;;13.23;6.18;;;;;;;;;;6253602;22;20183;-63
2022/04/30 03:27:06;;;;;;;9.35;6.30;;;;;;;;;;6247933;23;20152;-63
2022/04/30 03:29:32;;;;;;;10.43;6.03;;;;;;;;;;6248413;23;20151;-63
2022/04/30 03:31:58;;;;;;;10.48;6.40;;;;;;;;;;6248164;23;20147;-63
2022/04/30 03:34:24;;;;;;;9.70;5.93;;;;;;;;;;6248087;23;20234;-63
2022/04/30 03:36:50;;;;;;;11.93;7.28;;;;;;;;;;6247975;23;20150;-63
2022/04/30 03:39:16;;;;;;;12.90;7.35;;;;;;;;;;6247804;23;20223;-63
2022/04/30 03:41:42;;;;;;;12.05;7.20;;;;;;;;;;6246458;23;20140;-63
2022/04/30 03:44:07;;;;;;;11.25;7.13;;;;;;;;;;6247758;23;20243;-63
2022/04/30 03:46:34;;;;;;;10.02;7.07;;;;;;;;;;6248312;23;20148;-63
2022/04/30 03:49:00;;;;;;;12.15;6.80;;;;;;;;;;6247692;23;20559;-63
2022/04/30 03:51:26;;;;;;;13.68;6.88;;;;;;;;;;6247630;23;20144;-63
2022/04/30 03:53:55;;;;;;;12.23;7.03;;;;;;;;;;6247657;23;20171;-63
2022/04/30 03:56:22;;;;;;;14.70;8.23;;;;;;;;;;6251122;22;20196;-63
2022/04/30 03:58:49;;;;;;;11.98;7.60;;;;;;;;;;6263368;22;20176;-63
2022/04/30 04:01:18;;;;;;;18.27;8.70;;;;;;;;;;6259847;22;20196;-63
2022/04/30 04:03:44;;;;;;;11.63;7.55;;;;;;;;;;6268054;22;20187;-62
2022/04/30 04:06:10;;;;;;;16.30;8.65;;;;;;;;;;6269498;22;20193;-62
2022/04/30 04:08:36;;;;;;;16.55;8.43;;;;;;;;;;6241537;22;20208;-63
2022/04/30 04:11:02;;;;;;;12.63;7.88;;;;;;;;;;6261281;22;20201;-62
2022/04/30 04:21:10;;;;;;;16.15;8.30;;;;;;;;;;6254606;22;20457;-63
2022/04/30 04:26:03;;;;;;;14.07;8.13;;;;;;;;;;6252399;22;20192;-62
2022/04/30 04:28:29;;;;;;;16.15;7.75;;;;;;;;;;6257468;22;20190;-62
2022/04/30 04:30:56;;;;;;;15.90;7.90;;;;;;;;;;6252373;22;20194;-62
2022/04/30 04:33:22;;;;;;;12.25;7.07;;;;;;;;;;6255222;22;20183;-62
2022/04/30 04:35:48;;;;;;;15.00;6.33;;;;;;;;;;6214366;22;1012999;-62
2022/04/30 04:38:14;;;;;;;9.88;6.18;;;;;;;;;;6257968;22;20699;-62
2022/04/30 04:40:40;;;;;;;12.55;6.75;;;;;;;;;;6251913;22;20184;-62
2022/04/30 04:43:06;;;;;;;12.10;6.78;;;;;;;;;;6257626;22;20241;-62
2022/04/30 04:45:32;;;;;;;15.88;6.53;;;;;;;;;;6256493;22;22072;-61
2022/04/30 04:50:24;;;;;;;16.52;6.15;;;;;;;;;;6281572;22;20264;-61
2022/04/30 04:52:50;;;;;;;14.38;6.25;;;;;;;;;;6295642;22;20184;-62
2022/04/30 04:55:15;;;;;;;11.65;6.35;;;;;;;;;;6291147;22;20504;-62
2022/04/30 05:00:09;;;;;;;12.27;5.95;;;;;;;;;;6286793;22;20274;-62
2022/04/30 05:02:35;;;;;;;10.52;6.63;;;;;;;;;;6278528;22;20128;-62
2022/04/30 05:05:01;;;;;;;10.70;5.55;;;;;;;;;;6279140;22;20144;-62
2022/04/30 05:07:27;;;;;;;12.25;5.85;;;;;;;;;;6277235;22;20295;-62
2022/04/30 05:09:53;;;;;;;10.90;5.50;;;;;;;;;;6309428;22;20234;-62
2022/04/30 05:12:19;;;;;;;11.52;5.45;;;;;;;;;;6308858;22;20236;-62
2022/04/30 05:14:46;;;;;;;9.73;5.75;;;;;;;;;;6309232;22;20167;-62
2022/04/30 05:17:13;;;;;;;10.07;5.70;;;;;;;;;;6309332;22;20607;-62
2022/04/30 05:19:39;;;;;;;11.57;5.18;;;;;;;;;;6309150;22;20143;-62
2022/04/30 05:22:05;;;;;;;8.00;4.90;;;;;;;;;;6308590;22;20169;-62
2022/04/30 05:24:32;;;;;;;11.23;5.55;;;;;;;;;;6308810;22;20170;-62
2022/04/30 05:26:58;;;;;;;10.20;5.38;;;;;;;;;;6309161;22;20154;-62
2022/04/30 05:29:24;;;;;;;7.68;4.90;;;;;;;;;;6308975;22;20166;-62
2022/04/30 05:31:50;;;;;;;9.35;4.85;;;;;;;;;;6309217;22;20423;-62
2022/04/30 05:34:15;;;;;;;10.95;5.63;;;;;;;;;;6308306;22;20163;-62
2022/04/30 05:36:41;;;;;;;10.27;5.22;;;;;;;;;;6308922;22;20139;-62
2022/04/30 05:39:07;;;;;;;7.32;5.30;;;;;;;;;;6309201;22;20139;-62
2022/04/30 05:41:33;;;;;;;7.53;5.00;;;;;;;;;;6308651;22;20220;-62
2022/04/30 05:43:59;;;;;;;8.77;5.05;;;;;;;;;;6308763;22;20445;-63
2022/04/30 05:46:25;;;;;;;7.75;5.05;;;;;;;;;;6308492;22;20139;-62
2022/04/30 05:48:51;;;;;;;9.38;5.35;;;;;;;;;;6308450;22;20139;-63
2022/04/30 05:51:17;;;;;;;7.53;5.25;;;;;;;;;;6308994;22;20592;-62
2022/04/30 05:53:43;;;;;;;7.90;5.25;;;;;;;;;;6309339;22;20170;-63
2022/04/30 05:56:08;;;;;;;8.10;5.65;;;;;;;;;;6308660;22;20150;-63
2022/04/30 05:58:35;;;;;;;9.23;5.50;;;;;;;;;;6308282;22;20196;-63
2022/04/30 06:01:01;;;;;;;10.32;5.25;;;;;;;;;;6308428;22;20135;-63
2022/04/30 06:03:29;;;;;;;10.55;4.97;;;;;;;;;;6308847;22;20150;-63
2022/04/30 06:05:55;;;;;;;7.85;5.30;;;;;;;;;;6308667;22;20151;-63
2022/04/30 06:08:21;;;;;;;8.88;5.50;;;;;;;;;;6308181;22;20159;-61
2022/04/30 06:10:47;;;;;;;8.73;5.00;;;;;;;;;;6308526;22;20161;-61
2022/04/30 06:13:13;;;;;;;10.88;5.68;;;;;;;;;;6308308;22;20232;-63
2022/04/30 06:15:38;;;;;;;9.93;5.25;;;;;;;;;;6308035;22;20594;-63
2022/04/30 06:18:04;;;;;;;7.95;5.03;;;;;;;;;;6308157;22;20139;-63
2022/04/30 06:20:31;;;;;;;9.25;5.18;;;;;;;;;;6308595;22;20135;-62
2022/04/30 06:22:58;;;;;;;7.95;5.32;;;;;;;;;;6308362;22;20143;-63
2022/04/30 06:25:23;;;;;;;9.32;5.40;;;;;;;;;;6308372;22;20139;-63
2022/04/30 06:27:49;;;;;;;13.20;6.03;;;;;;;;;;6307855;22;20155;-63
2022/04/30 06:30:15;;;;;;;8.45;5.65;;;;;;;;;;6308279;22;20143;-63
2022/04/30 06:32:41;;;;;;;12.50;5.93;;;;;;;;;;6307831;22;20138;-63
2022/04/30 06:35:07;;;;;;;11.75;6.00;;;;;;;;;;6308270;22;20170;-63
2022/04/30 06:37:33;;;;;;;11.10;6.50;;;;;;;;;;6307784;22;20565;-63
2022/04/30 06:39:59;;;;;;;9.20;5.95;;;;;;;;;;6307436;22;20139;-63
2022/04/30 06:42:25;;;;;;;6.88;5.57;;;;;;;;;;6307832;22;20146;-64
2022/04/30 06:44:51;;;;;;;8.90;5.63;;;;;;;;;;6307727;22;20559;-63
2022/04/30 06:47:18;;;;;;;9.60;6.30;;;;;;;;;;6308291;22;20147;-63
2022/04/30 06:49:44;;;;;;;9.15;6.10;;;;;;;;;;6308227;22;20165;-63
2022/04/30 06:52:10;;;;;;;11.77;7.00;;;;;;;;;;6308088;22;20139;-62
2022/04/30 06:57:22;;;;;;;10.95;7.10;;;;;;;;;;6308040;22;20142;-62
2022/04/30 06:59:51;;;;;;;11.45;6.07;;;;;;;;;;6308292;22;20142;-62
2022/04/30 07:02:18;;;;;;;13.45;6.75;;;;;;;;;;6308417;22;20550;-62
2022/04/30 07:04:46;;;;;;;7.75;5.93;;;;;;;;;;6308733;22;20139;-63
2022/04/30 07:07:12;;;;;;;11.57;6.75;;;;;;;;;;6308345;22;20143;-63
2022/04/30 07:09:38;;;;;;;11.02;6.00;;;;;;;;;;6307919;22;20165;-62
2022/04/30 07:12:06;;;;;;;8.82;6.05;;;;;;;;;;6308513;22;20555;-64
2022/04/30 07:14:35;;;;;;;8.60;5.85;;;;;;;;;;6308237;22;20167;-63
2022/04/30 07:17:02;;;;;;;10.65;6.78;;;;;;;;;;6308300;22;20143;-63
2022/04/30 07:19:28;;;;;;;8.95;6.20;;;;;;;;;;6307994;22;20192;-63
2022/04/30 07:21:54;;;;;;;10.27;6.22;;;;;;;;;;6308348;22;20234;-63
2022/04/30 07:24:19;;;;;;;13.23;6.88;;;;;;;;;;6307839;22;20165;-63
2022/04/30 07:26:45;;;;;;;10.85;6.70;;;;;;;;;;6307959;22;20144;-63
2022/04/30 07:29:11;;;;;;;14.32;7.30;;;;;;;;;;6307826;22;20151;-63
2022/04/30 07:31:37;;;;;;;11.43;7.28;;;;;;;;;;6308269;22;20198;-63
2022/04/30 07:34:04;;;;;;;13.23;7.53;;;;;;;;;;6307864;22;20154;-63
2022/04/30 07:36:30;;;;;;;11.18;7.50;;;;;;;;;;6308281;22;20451;-63
2022/04/30 07:38:56;;;;;;;14.13;8.20;;;;;;;;;;6307909;22;20417;-63
2022/04/30 07:41:22;;;;;;;12.38;7.13;;;;;;;;;;6307776;22;20233;-63
2022/04/30 07:43:48;;;;;;;9.82;6.93;;;;;;;;;;6307864;22;20139;-63
2022/04/30 07:46:14;;;;;;;12.48;7.75;;;;;;;;;;6308129;22;20139;-63
2022/04/30 07:48:40;;;;;;;10.10;7.05;;;;;;;;;;6307656;22;20434;-64
2022/04/30 07:51:13;;;;;;;11.48;6.85;;;;;;;;;;6307687;22;20146;-63
2022/04/30 07:53:40;;;;;;;10.88;7.43;;;;;;;;;;6309938;22;20124;-63
2022/04/30 07:56:06;;;;;;;10.27;7.30;;;;;;;;;;6309975;22;20171;-63
2022/04/30 07:58:32;;;;;;;11.00;7.35;;;;;;;;;;6309541;22;20167;-63
2022/04/30 08:00:59;;;;;;;12.60;7.35;;;;;;;;;;6309283;22;20653;-63
2022/04/30 08:03:25;;;;;;;11.57;7.05;;;;;;;;;;6309826;22;20135;-62
2022/04/30 08:05:51;;;;;;;11.23;7.05;;;;;;;;;;6309150;22;20193;-62
2022/04/30 08:08:17;;;;;;;11.63;7.15;;;;;;;;;;6309318;22;20477;-63
2022/04/30 08:10:45;;;;;;;11.18;7.10;;;;;;;;;;6307998;22;20177;-62
2022/04/30 08:13:11;;;;;;;12.27;6.20;;;;;;;;;;6309680;22;20271;-63
2022/04/30 08:15:43;;;;;;;10.55;6.43;;;;;;;;;;6308977;22;20211;-63
2022/04/30 08:18:08;;;;;;;11.70;6.80;;;;;;;;;;6309490;22;20127;-63
2022/04/30 08:20:36;;;;;;;9.73;6.82;;;;;;;;;;6309154;22;20165;-61
2022/04/30 08:23:03;;;;;;;11.75;6.05;;;;;;;;;;6309565;22;20135;-63
2022/04/30 08:25:29;;;;;;;10.40;6.45;;;;;;;;;;6308966;22;20611;-63
2022/04/30 08:27:55;;;;;;;9.88;5.90;;;;;;;;;;6309113;22;20170;-63
2022/04/30 08:30:20;;;;;;;10.63;5.82;;;;;;;;;;6286248;22;20163;-62
2022/04/30 08:32:48;;;;;;;10.15;5.88;;;;;;;;;;6278103;22;20535;-62
2022/04/30 08:35:14;;;;;;;9.35;5.97;;;;;;;;;;6278704;22;20340;-62
2022/04/30 08:37:40;;;;;;;11.82;5.82;;;;;;;;;;6251244;22;20546;-62
2022/04/30 08:40:06;;;;;;;7.45;5.80;;;;;;;;;;6277866;22;20177;-62
2022/04/30 08:42:32;;;;;;;6.63;5.05;;;;;;;;;;6278368;22;20140;-61
2022/04/30 08:44:59;;;;;;;9.52;5.78;;;;;;;;;;6277891;22;20144;-61
2022/04/30 08:47:25;;;;;;;9.80;5.60;;;;;;;;;;6278185;22;20219;-62
2022/04/30 08:49:52;;;;;;;9.77;5.55;;;;;;;;;;6278049;22;20496;-61
2022/04/30 08:52:18;;;;;;;10.00;5.15;;;;;;;;;;6278098;22;20236;-63
2022/04/30 08:54:43;;;;;;;11.40;5.50;;;;;;;;;;6277942;22;20167;-63
2022/04/30 08:57:10;;;;;;;10.90;5.70;;;;;;;;;;6278139;22;20222;-63
2022/04/30 08:59:36;;;;;;;8.38;4.97;;;;;;;;;;6278014;22;20457;-63
2022/04/30 09:02:08;;;;;;;6.05;4.45;;;;;;;;;;6277854;22;20215;-63
2022/04/30 09:04:42;;;;;;;7.88;4.63;;;;;;;;;;6277314;22;20133;-63
2022/04/30 09:07:12;;;;;;;6.68;4.22;;;;;;;;;;6277969;22;20176;-63
2022/04/30 09:09:38;;;;;;;9.00;4.55;;;;;;;;;;6277823;22;20171;-63
2022/04/30 09:12:08;;;;;;;4.97;4.22;;;;;;;;;;6277755;22;20144;-62
2022/04/30 09:14:34;;;;;;;9.43;4.88;;;;;;;;;;6277821;22;20171;-62
2022/04/30 09:17:02;;;;;;;7.70;4.32;;;;;;;;;;6277917;22;20140;-63
2022/04/30 09:19:28;;;;;;;5.70;4.03;;;;;;;;;;6277999;22;20205;-63
2022/04/30 09:21:53;;;;;;;8.18;3.80;;;;;;;;;;6277923;22;20144;-63
2022/04/30 09:24:19;;;;;;;8.93;5.22;;;;;;;;;;6277882;22;20143;-63
2022/04/30 09:26:45;;;;;;;10.90;5.47;;;;;;;;;;6277720;22;20144;-62
2022/04/30 09:29:22;;;;;;;8.10;4.65;;;;;;;;;;6277482;22;20150;-62
2022/04/30 09:31:51;;;;;;;8.38;5.07;;;;;;;;;;6277342;22;20606;-63
2022/04/30 09:39:47;;;;;;;7.47;5.40;;;;;;;;;;6277406;22;20237;-61
2022/04/30 09:42:13;;;;;;;8.15;4.70;;;;;;;;;;6277289;22;20530;-63
2022/04/30 09:44:39;;;;;;;8.40;5.18;;;;;;;;;;6277351;22;20181;-63
2022/04/30 09:47:07;;;;;;;9.70;5.15;;;;;;;;;;6277506;22;20186;-63
2022/04/30 09:55:04;;;;;;;8.38;5.10;;;;;;;;;;6276996;22;20586;-63
2022/04/30 09:57:32;;;;;;;8.25;5.35;;;;;;;;;;6277298;22;20547;-63
2022/04/30 10:00:00;;;;;;;8.25;5.53;;;;;;;;;;6277599;22;20166;-63
2022/04/30 10:02:28;;;;;;;7.88;5.00;;;;;;;;;;6277285;22;20215;-63
2022/04/30 10:04:55;;;;;;;7.25;4.65;;;;;;;;;;6277515;22;20154;-63
2022/04/30 10:07:24;;;;;;;6.43;4.60;;;;;;;;;;6277436;22;20171;-62
2022/04/30 10:09:55;;;;;;;7.65;4.28;;;;;;;;;;6277260;22;20209;-61
2022/04/30 10:12:31;;;;;;;6.10;3.45;;;;;;;;;;6277280;22;20535;-63
2022/04/30 10:15:22;;;;;;;7.75;4.60;;;;;;;;;;6277114;22;20177;-62
2022/04/30 10:17:52;;;;;;;5.22;3.70;;;;;;;;;;6277124;22;20132;-63
2022/04/30 10:20:28;;;;;;;7.10;4.07;;;;;;;;;;6277435;22;20124;-63
2022/04/30 10:22:55;;;;;;;5.35;3.65;;;;;;;;;;6277471;22;20466;-63
2022/04/30 10:25:32;;;;;;;7.43;3.78;;;;;;;;;;6277000;22;20144;-63
2022/04/30 10:27:58;;;;;;;4.95;4.07;;;;;;;;;;6277407;22;20147;-63
2022/04/30 10:30:24;;;;;;;5.75;3.85;;;;;;;;;;6276966;22;20166;-62
2022/04/30 10:33:03;;;;;;;7.15;4.20;;;;;;;;;;6277531;22;20425;-63
2022/04/30 10:35:33;;;;;;;7.78;3.75;;;;;;;;;;6277247;22;20189;-63
2022/04/30 10:38:12;;;;;;;6.20;3.45;;;;;;;;;;6277156;22;20209;-63
2022/04/30 10:40:39;;;;;;;4.43;3.40;;;;;;;;;;6277034;22;20136;-61
2022/04/30 10:43:14;;;;;;;6.13;4.13;;;;;;;;;;6277436;22;20151;-62
2022/04/30 10:45:40;;;;;;;6.18;3.85;;;;;;;;;;6277283;22;20138;-63
2022/04/30 10:48:06;;;;;;;5.35;3.88;;;;;;;;;;6276928;22;20144;-62
2022/04/30 10:50:32;;;;;;;6.13;3.72;;;;;;;;;;6277197;22;20222;-62
2022/04/30 10:53:00;;;;;;;5.65;3.70;;;;;;;;;;6277124;22;20194;-63
2022/04/30 10:55:27;;;;;;;6.82;3.05;;;;;;;;;;6276929;22;20191;-62
2022/04/30 10:57:53;;;;;;;4.88;3.13;;;;;;;;;;6276845;22;20443;-63
2022/04/30 11:00:21;;;;;;;6.40;3.78;;;;;;;;;;6250176;22;20150;-63
2022/04/30 11:02:47;;;;;;;4.93;3.03;;;;;;;;;;6277158;22;20202;-63
2022/04/30 11:05:19;;;;;;;8.23;3.90;;;;;;;;;;6277263;22;20437;-63
2022/04/30 11:07:46;;;;;;;6.13;3.33;;;;;;;;;;6277094;22;20459;-63
2022/04/30 11:10:12;;;;;;;4.70;2.88;;;;;;;;;;6277036;22;20605;-64
2022/04/30 11:12:38;;;;;;;5.10;2.80;;;;;;;;;;6277158;22;20139;-63
2022/04/30 11:15:04;;;;;;;4.65;2.78;;;;;;;;;;6276801;22;20164;-63
2022/04/30 11:17:30;;;;;;;9.10;3.05;;;;;;;;;;6277265;22;20214;-63
2022/04/30 11:19:56;;;;;;;3.72;3.20;;;;;;;;;;6277123;22;20159;-63
2022/04/30 11:22:22;;;;;;;6.10;3.03;;;;;;;;;;6276782;22;20186;-63
2022/04/30 11:24:49;;;;;;;5.55;2.90;;;;;;;;;;6276928;22;20222;-63
2022/04/30 11:27:15;;;;;;;4.40;2.63;;;;;;;;;;6278199;22;20219;-63
2022/04/30 11:29:55;;;;;;;4.57;3.20;;;;;;;;;;6278882;22;20582;-62
2022/04/30 11:32:22;;;;;;;4.88;3.28;;;;;;;;;;6278822;22;20567;-64
2022/04/30 11:34:48;;;;;;;6.45;3.60;;;;;;;;;;6278752;22;20171;-63
2022/04/30 11:37:14;;;;;;;4.05;3.35;;;;;;;;;;6278739;22;20161;-64
2022/04/30 11:39:40;;;;;;;5.35;3.08;;;;;;;;;;6278319;22;20551;-65
2022/04/30 11:42:06;;;;;;;4.50;3.10;;;;;;;;;;6278480;22;20213;-64
2022/04/30 11:44:32;;;;;;;6.50;2.95;;;;;;;;;;6278401;22;20144;-63
2022/04/30 11:46:58;;;;;;;3.35;2.40;;;;;;;;;;6278775;22;20467;-66
2022/04/30 11:49:25;;;;;;;3.28;2.20;;;;;;;;;;6278419;22;20193;-63
2022/04/30 11:51:52;;;;;;;3.28;1.95;;;;;;;;;;6278178;22;20140;-64
2022/04/30 11:54:19;;;;;;;2.70;1.90;;;;;;;;;;6278687;22;20167;-64
2022/04/30 11:56:45;;;;;;;2.42;2.10;;;;;;;;;;6278019;22;20140;-63
2022/04/30 11:59:11;;;;;;;4.07;2.42;;;;;;;;;;6278704;22;20140;-63
2022/04/30 12:01:39;;;;;;;4.03;2.92;;;;;;;;;;6278838;22;20151;-63
2022/04/30 12:04:11;;;;;;;2.65;1.95;;;;;;;;;;6278558;22;20551;-63
2022/04/30 12:06:37;;;;;;;2.63;1.73;;;;;;;;;;6278795;22;20131;-63
2022/04/30 12:09:21;;;;;;;2.72;1.73;;;;;;;;;;6278256;22;20614;-63
2022/04/30 12:11:51;;;;;;;5.10;1.90;;;;;;;;;;6278310;22;20551;-63
2022/04/30 12:14:17;;;;;;;3.72;2.40;;;;;;;;;;6278402;22;20202;-63
2022/04/30 12:16:44;;;;;;;2.58;1.88;;;;;;;;;;6278710;22;20247;-63
2022/04/30 12:25:01;;;;;;;3.92;2.30;;;;;;;;;;6278495;22;20139;-62
2022/04/30 12:27:28;;;;;;;3.60;2.22;;;;;;;;;;6278232;22;20209;-63
2022/04/30 12:30:21;;;;;;;2.90;2.10;;;;;;;;;;6278558;22;20202;-63
2022/04/30 12:32:47;;;;;;;3.70;1.85;;;;;;;;;;6273958;22;20152;-63
2022/04/30 12:35:14;;;;;;;2.80;2.00;;;;;;;;;;6278508;22;20420;-63
2022/04/30 12:37:40;;;;;;;3.63;1.90;;;;;;;;;;6277870;22;20144;-62
2022/04/30 12:40:07;;;;;;;2.80;1.88;;;;;;;;;;6277519;22;20180;-63
2022/04/30 12:42:34;;;;;;;2.15;1.95;;;;;;;;;;6277761;22;20159;-62
2022/04/30 12:45:00;;;;;;;5.13;2.22;;;;;;;;;;6278304;22;20171;-62
2022/04/30 12:47:26;;;;;;;3.38;1.75;;;;;;;;;;6278297;22;20147;-63
2022/04/30 12:49:52;;;;;;;3.35;1.65;;;;;;;;;;6278337;22;20147;-63
2022/04/30 12:52:18;;;;;;;3.95;1.58;;;;;;;;;;6277850;22;20150;-62
2022/04/30 12:54:44;;;;;;;2.55;1.65;;;;;;;;;;6277957;22;20171;-62
2022/04/30 12:57:11;;;;;;;2.25;1.63;;;;;;;;;;6278117;22;20555;-62
2022/04/30 12:59:37;;;;;;;3.78;1.70;;;;;;;;;;6278158;22;20144;-63
2022/04/30 13:02:04;;;;;;;2.53;1.52;;;;;;;;;;6277776;22;20223;-62
2022/04/30 13:04:29;;;;;;;2.22;1.33;;;;;;;;;;6277620;22;20154;-62
2022/04/30 13:06:55;;;;;;;1.48;1.00;;;;;;;;;;6278137;22;20143;-62
2022/04/30 13:14:51;;;;;;;2.40;1.38;;;;;;;;;;6277617;22;20175;-63
2022/04/30 13:17:17;;;;;;;1.95;1.30;;;;;;;;;;6277319;22;20140;-63
2022/04/30 13:19:44;;;;;;;1.67;1.20;;;;;;;;;;6277674;22;20200;-62
2022/04/30 13:22:10;;;;;;;2.03;1.48;;;;;;;;;;6277869;22;20647;-63
2022/04/30 13:24:36;;;;;;;4.13;1.70;;;;;;;;;;6278166;22;20144;-63
2022/04/30 13:27:02;;;;;;;2.85;1.98;;;;;;;;;;6277353;22;20147;-63
2022/04/30 13:29:28;;;;;;;3.40;1.63;;;;;;;;;;6277481;22;20151;-63
2022/04/30 13:31:54;;;;;;;2.58;1.10;;;;;;;;;;6277888;22;20242;-63
2022/04/30 13:34:21;;;;;;;2.40;1.73;;;;;;;;;;6277879;22;20265;-62
2022/04/30 13:36:47;;;;;;;2.42;1.80;;;;;;;;;;6291219;22;20570;-63
2022/04/30 13:39:13;;;;;;;3.88;2.00;;;;;;;;;;6279302;22;20438;-63
2022/04/30 13:41:39;;;;;;;3.22;1.63;;;;;;;;;;6277498;22;20142;-63
2022/04/30 13:44:07;;;;;;;1.90;1.55;;;;;;;;;;6277333;22;20135;-63
2022/04/30 13:46:33;;;;;;;3.85;2.25;;;;;;;;;;6277656;22;20140;-64
2022/04/30 13:48:59;;;;;;;2.65;1.10;;;;;;;;;;6277139;22;20146;-63
2022/04/30 13:51:25;;;;;;;2.20;0.90;;;;;;;;;;6277294;22;20215;-64
2022/04/30 13:53:51;;;;;;;2.60;1.50;;;;;;;;;;6277424;22;20197;-63
2022/04/30 13:56:17;;;;;;;1.75;1.33;;;;;;;;;;6277094;22;20254;-63
2022/04/30 13:58:43;;;;;;;1.88;1.20;;;;;;;;;;6277624;22;20418;-63
2022/04/30 14:01:09;;;;;;;1.55;0.98;;;;;;;;;;6277027;22;20200;-63
2022/04/30 14:03:36;;;;;;;3.05;1.20;;;;;;;;;;6277016;22;20139;-63
2022/04/30 14:06:03;;;;;;;3.05;1.10;;;;;;;;;;6277626;22;20201;-63
2022/04/30 14:08:29;;;;;;;3.75;1.48;;;;;;;;;;6277015;22;20163;-63
2022/04/30 14:10:55;;;;;;;3.78;1.30;;;;;;;;;;6277055;22;20440;-63
2022/04/30 14:16:05;;;;;;;2.08;1.00;;;;;;;;;;6277113;22;20206;-63
2022/04/30 14:18:33;;;;;;;1.30;0.90;;;;;;;;;;6277362;22;20428;-63
2022/04/30 14:21:03;;;;;;;4.15;1.70;;;;;;;;;;6277282;22;20136;-63
2022/04/30 14:23:29;;;;;;;2.65;1.33;;;;;;;;;;6277520;22;20354;-64
2022/04/30 14:25:56;;;;;;;1.10;0.90;;;;;;;;;;6277215;22;20186;-64
2022/04/30 14:28:22;;;;;;;1.15;1.02;;;;;;;;;;6276995;22;20460;-64
2022/04/30 14:30:48;;;;;;;1.73;0.77;;;;;;;;;;6277401;22;20317;-62
2022/04/30 14:33:14;;;;;;;2.10;1.00;;;;;;;;;;6277161;22;20148;-64
2022/04/30 14:35:40;;;;;;;1.88;0.70;;;;;;;;;;6277278;22;20225;-64
2022/04/30 14:38:11;;;;;;;0.43;0.40;;;;;;;;;;6277030;22;20136;-63
2022/04/30 14:40:41;;;;;;;2.15;0.70;;;;;;;;;;6277480;22;20147;-63
2022/04/30 14:43:08;;;;;;;4.20;1.55;;;;;;;;;;6277032;22;20143;-64
2022/04/30 14:45:34;;;;;;;1.60;1.27;;;;;;;;;;6277195;22;20143;-63
2022/04/30 14:48:00;;;;;;;2.88;1.38;;;;;;;;;;6276991;22;20218;-63
2022/04/30 14:50:26;;;;;;;2.03;1.45;;;;;;;;;;6276837;22;20230;-65
2022/04/30 14:52:52;;;;;;;4.07;1.70;;;;;;;;;;6277009;22;20143;-63
2022/04/30 14:55:18;;;;;;;2.17;1.60;;;;;;;;;;6276990;22;20232;-64
2022/04/30 14:57:44;;;;;;;1.60;1.33;;;;;;;;;;6277473;22;20433;-65
2022/04/30 15:00:10;;;;;;;2.30;1.40;;;;;;;;;;6276912;22;20568;-65
2022/04/30 15:02:36;;;;;;;2.58;1.50;;;;;;;;;;6278116;22;20139;-65
2022/04/30 15:05:02;;;;;;;1.17;1.08;;;;;;;;;;6278999;22;20178;-64
2022/04/30 15:07:28;;;;;;;1.35;1.00;;;;;;;;;;6278659;22;20216;-64
2022/04/30 15:09:54;;;;;;;2.35;1.42;;;;;;;;;;6279140;22;20547;-64
2022/04/30 15:12:21;;;;;;;1.30;1.20;;;;;;;;;;6279035;22;20182;-64
2022/04/30 15:14:46;;;;;;;1.38;1.15;;;;;;;;;;6278914;22;20171;-63
2022/04/30 15:17:13;;;;;;;1.40;1.20;;;;;;;;;;6279158;22;20506;-62
2022/04/30 15:19:39;;;;;;;3.13;1.58;;;;;;;;;;6278687;22;20139;-63
2022/04/30 15:22:05;;;;;;;2.08;1.20;;;;;;;;;;6279669;22;20170;-64
2022/04/30 15:24:31;;;;;;;3.78;1.85;;;;;;;;;;6278685;22;20451;-64
2022/04/30 15:26:58;;;;;;;2.40;1.30;;;;;;;;;;6279282;22;20165;-63
2022/04/30 15:29:28;;;;;;;5.45;1.63;;;;;;;;;;6278973;22;20139;-63
2022/04/30 15:31:55;;;;;;;1.67;1.52;;;;;;;;;;6279369;22;20531;-64
2022/04/30 15:34:21;;;;;;;1.40;1.30;;;;;;;;;;6278841;22;20147;-63
2022/04/30 15:36:47;;;;;;;2.05;1.55;;;;;;;;;;6279006;22;20147;-64